sensor_id;sensor_type;location;lat;lon;timestamp;P1;durP1;ratioP1;P2;durP2;ratioP2
21416;SDS011;10869;52.238;10.716;2023-02-03T04:03:20;28.33;;;18.13;;
21416;SDS011;10869;52.238;10.716;2023-02-03T04:05:49;30.33;;;18.57;;
21416;SDS011;10869;52.238;10.716;2023-02-03T04:08:15;28.43;;;18.47;;
21416;SDS011;10869;52.238;10.716;2023-02-03T04:10:41;29.50;;;18.40;;
21416;SDS011;10869;52.238;10.716;2023-02-03T04:13:08;27.20;;;18.97;;
21416;SDS011;10869;52.238;10.716;2023-02-03T04:15:36;19.87;;;15.00;;
21416;SDS011;10869;52.238;10.716;2023-02-03T04:18:08;23.70;;;15.63;;
21416;SDS011;10869;52.238;10.716;2023-02-03T04:20:37;24.87;;;15.97;;
21416;SDS011;10869;52.238;10.716;2023-02-03T04:23:03;33.30;;;16.10;;
21416;SDS011;10869;52.238;10.716;2023-02-03T04:25:28;28.63;;;15.80;;
21416;SDS011;10869;52.238;10.716;2023-02-03T04:27:54;22.43;;;14.50;;
21416;SDS011;10869;52.238;10.716;2023-02-03T04:30:20;25.70;;;15.00;;
21416;SDS011;10869;52.238;10.716;2023-02-03T04:32:46;24.10;;;14.43;;
21416;SDS011;10869;52.238;10.716;2023-02-03T04:35:12;24.60;;;14.67;;
21416;SDS011;10869;52.238;10.716;2023-02-03T04:37:39;22.83;;;13.53;;
21416;SDS011;10869;52.238;10.716;2023-02-03T04:40:05;23.93;;;15.17;;
21416;SDS011;10869;52.238;10.716;2023-02-03T04:42:32;19.57;;;12.77;;
21416;SDS011;10869;52.238;10.716;2023-02-03T04:44:58;19.97;;;12.57;;
21416;SDS011;10869;52.238;10.716;2023-02-03T04:47:23;22.00;;;12.93;;
21416;SDS011;10869;52.238;10.716;2023-02-03T04:49:49;20.67;;;12.63;;
21416;SDS011;10869;52.238;10.716;2023-02-03T04:52:15;21.40;;;12.20;;
21416;SDS011;10869;52.238;10.716;2023-02-03T04:54:41;17.93;;;11.33;;
21416;SDS011;10869;52.238;10.716;2023-02-03T04:57:07;18.87;;;11.33;;
21416;SDS011;10869;52.238;10.716;2023-02-03T04:59:33;22.27;;;11.53;;
21416;SDS011;10869;52.238;10.716;2023-02-03T05:02:00;19.80;;;11.17;;
21416;SDS011;10869;52.238;10.716;2023-02-03T05:04:28;17.97;;;11.57;;
21416;SDS011;10869;52.238;10.716;2023-02-03T05:06:54;19.67;;;11.67;;
21416;SDS011;10869;52.238;10.716;2023-02-03T05:09:21;20.17;;;11.23;;
21416;SDS011;10869;52.238;10.716;2023-02-03T05:11:48;14.47;;;11.03;;
21416;SDS011;10869;52.238;10.716;2023-02-03T05:14:14;16.80;;;11.20;;
21416;SDS011;10869;52.238;10.716;2023-02-03T05:16:40;19.23;;;11.10;;
21416;SDS011;10869;52.238;10.716;2023-02-03T05:19:09;17.40;;;11.10;;
21416;SDS011;10869;52.238;10.716;2023-02-03T05:21:35;18.23;;;11.03;;
21416;SDS011;10869;52.238;10.716;2023-02-03T05:24:01;18.37;;;11.47;;
21416;SDS011;10869;52.238;10.716;2023-02-03T05:26:30;20.83;;;11.13;;
21416;SDS011;10869;52.238;10.716;2023-02-03T05:28:56;19.37;;;11.13;;
21416;SDS011;10869;52.238;10.716;2023-02-03T05:31:23;21.03;;;10.80;;
21416;SDS011;10869;52.238;10.716;2023-02-03T05:33:48;18.13;;;10.47;;
21416;SDS011;10869;52.238;10.716;2023-02-03T05:36:14;22.33;;;11.13;;
21416;SDS011;10869;52.238;10.716;2023-02-03T05:38:40;20.00;;;10.87;;
21416;SDS011;10869;52.238;10.716;2023-02-03T05:41:08;16.20;;;10.17;;
21416;SDS011;10869;52.238;10.716;2023-02-03T05:43:54;18.80;;;10.70;;
21416;SDS011;10869;52.238;10.716;2023-02-03T05:46:20;16.07;;;10.00;;
21416;SDS011;10869;52.238;10.716;2023-02-03T05:48:45;15.90;;;9.83;;
21416;SDS011;10869;52.238;10.716;2023-02-03T05:51:11;16.97;;;9.97;;
21416;SDS011;10869;52.238;10.716;2023-02-03T05:53:37;16.50;;;10.10;;
21416;SDS011;10869;52.238;10.716;2023-02-03T05:56:06;22.33;;;12.00;;
21416;SDS011;10869;52.238;10.716;2023-02-03T05:58:32;20.73;;;12.47;;
21416;SDS011;10869;52.238;10.716;2023-02-03T06:00:58;22.20;;;10.37;;
21416;SDS011;10869;52.238;10.716;2023-02-03T06:03:23;19.00;;;9.90;;
21416;SDS011;10869;52.238;10.716;2023-02-03T06:05:49;15.97;;;9.47;;
21416;SDS011;10869;52.238;10.716;2023-02-03T06:08:15;20.33;;;10.60;;
21416;SDS011;10869;52.238;10.716;2023-02-03T06:10:41;16.97;;;9.50;;
21416;SDS011;10869;52.238;10.716;2023-02-03T06:13:10;19.40;;;9.93;;
21416;SDS011;10869;52.238;10.716;2023-02-03T06:15:37;19.60;;;10.33;;
21416;SDS011;10869;52.238;10.716;2023-02-03T06:18:04;18.60;;;9.33;;
21416;SDS011;10869;52.238;10.716;2023-02-03T06:20:30;18.07;;;9.93;;
21416;SDS011;10869;52.238;10.716;2023-02-03T06:22:56;15.10;;;8.63;;
21416;SDS011;10869;52.238;10.716;2023-02-03T06:25:21;23.30;;;12.33;;
21416;SDS011;10869;52.238;10.716;2023-02-03T06:27:48;20.60;;;9.70;;
21416;SDS011;10869;52.238;10.716;2023-02-03T06:30:14;15.50;;;8.13;;
21416;SDS011;10869;52.238;10.716;2023-02-03T06:32:41;21.07;;;8.67;;
21416;SDS011;10869;52.238;10.716;2023-02-03T06:35:07;25.27;;;8.53;;
21416;SDS011;10869;52.238;10.716;2023-02-03T06:37:33;16.10;;;7.43;;
21416;SDS011;10869;52.238;10.716;2023-02-03T06:39:59;17.67;;;7.60;;
21416;SDS011;10869;52.238;10.716;2023-02-03T06:42:26;16.87;;;8.03;;
21416;SDS011;10869;52.238;10.716;2023-02-03T06:44:52;16.07;;;6.93;;
21416;SDS011;10869;52.238;10.716;2023-02-03T06:47:19;14.37;;;7.60;;
21416;SDS011;10869;52.238;10.716;2023-02-03T06:49:45;12.53;;;7.03;;
21416;SDS011;10869;52.238;10.716;2023-02-03T06:52:10;18.83;;;7.40;;
21416;SDS011;10869;52.238;10.716;2023-02-03T06:54:36;15.27;;;7.63;;
21416;SDS011;10869;52.238;10.716;2023-02-03T06:57:02;13.67;;;6.63;;
21416;SDS011;10869;52.238;10.716;2023-02-03T06:59:28;16.70;;;7.17;;
21416;SDS011;10869;52.238;10.716;2023-02-03T07:01:54;17.73;;;6.87;;
21416;SDS011;10869;52.238;10.716;2023-02-03T07:04:22;19.77;;;6.93;;
21416;SDS011;10869;52.238;10.716;2023-02-03T07:06:57;15.97;;;7.00;;
21416;SDS011;10869;52.238;10.716;2023-02-03T07:09:23;13.50;;;7.53;;
21416;SDS011;10869;52.238;10.716;2023-02-03T07:11:49;20.53;;;7.73;;
21416;SDS011;10869;52.238;10.716;2023-02-03T07:14:15;12.53;;;6.57;;
21416;SDS011;10869;52.238;10.716;2023-02-03T07:16:41;17.03;;;6.70;;
21416;SDS011;10869;52.238;10.716;2023-02-03T07:19:07;13.90;;;7.23;;
21416;SDS011;10869;52.238;10.716;2023-02-03T07:21:39;17.00;;;6.97;;
21416;SDS011;10869;52.238;10.716;2023-02-03T07:24:04;13.93;;;7.17;;
21416;SDS011;10869;52.238;10.716;2023-02-03T07:26:30;15.90;;;7.53;;
21416;SDS011;10869;52.238;10.716;2023-02-03T07:28:56;14.73;;;6.37;;
21416;SDS011;10869;52.238;10.716;2023-02-03T07:31:24;21.63;;;7.67;;
21416;SDS011;10869;52.238;10.716;2023-02-03T07:33:50;17.10;;;7.23;;
21416;SDS011;10869;52.238;10.716;2023-02-03T07:36:16;13.13;;;5.87;;
21416;SDS011;10869;52.238;10.716;2023-02-03T07:42:04;12.13;;;5.97;;
21416;SDS011;10869;52.238;10.716;2023-02-03T07:47:51;11.47;;;5.67;;
21416;SDS011;10869;52.238;10.716;2023-02-03T07:53:39;12.83;;;5.93;;
21416;SDS011;10869;52.238;10.716;2023-02-03T07:56:05;13.10;;;6.23;;
21416;SDS011;10869;52.238;10.716;2023-02-03T07:58:31;12.47;;;6.17;;
21416;SDS011;10869;52.238;10.716;2023-02-03T08:04:19;13.67;;;5.97;;
21416;SDS011;10869;52.238;10.716;2023-02-03T08:06:45;13.50;;;5.93;;
21416;SDS011;10869;52.238;10.716;2023-02-03T08:09:11;9.30;;;5.90;;
21416;SDS011;10869;52.238;10.716;2023-02-03T08:11:36;11.47;;;5.40;;
21416;SDS011;10869;52.238;10.716;2023-02-03T08:14:02;9.23;;;5.50;;
21416;SDS011;10869;52.238;10.716;2023-02-03T08:16:28;9.37;;;4.90;;
21416;SDS011;10869;52.238;10.716;2023-02-03T08:22:16;11.97;;;5.57;;
21416;SDS011;10869;52.238;10.716;2023-02-03T08:24:42;8.97;;;5.00;;
21416;SDS011;10869;52.238;10.716;2023-02-03T08:27:13;12.37;;;5.73;;
21416;SDS011;10869;52.238;10.716;2023-02-03T08:29:41;9.60;;;4.57;;
21416;SDS011;10869;52.238;10.716;2023-02-03T08:32:17;10.03;;;4.90;;
21416;SDS011;10869;52.238;10.716;2023-02-03T08:34:45;11.27;;;5.53;;
21416;SDS011;10869;52.238;10.716;2023-02-03T08:37:12;11.37;;;5.20;;
21416;SDS011;10869;52.238;10.716;2023-02-03T08:39:39;8.60;;;4.90;;
21416;SDS011;10869;52.238;10.716;2023-02-03T08:42:05;13.23;;;4.67;;
21416;SDS011;10869;52.238;10.716;2023-02-03T08:44:31;8.83;;;4.33;;
21416;SDS011;10869;52.238;10.716;2023-02-03T08:46:58;9.47;;;4.53;;
21416;SDS011;10869;52.238;10.716;2023-02-03T08:52:00;6.23;;;3.90;;
21416;SDS011;10869;52.238;10.716;2023-02-03T08:54:26;8.27;;;3.40;;
21416;SDS011;10869;52.238;10.716;2023-02-03T09:02:02;7.67;;;4.27;;
21416;SDS011;10869;52.238;10.716;2023-02-03T09:04:32;6.37;;;3.60;;
21416;SDS011;10869;52.238;10.716;2023-02-03T09:06:59;7.97;;;3.87;;
21416;SDS011;10869;52.238;10.716;2023-02-03T09:12:48;6.53;;;4.07;;
21416;SDS011;10869;52.238;10.716;2023-02-03T09:18:36;8.73;;;4.60;;
21416;SDS011;10869;52.238;10.716;2023-02-03T09:24:30;11.20;;;4.67;;
21416;SDS011;10869;52.238;10.716;2023-02-03T09:26:58;9.43;;;4.90;;
21416;SDS011;10869;52.238;10.716;2023-02-03T09:29:25;11.40;;;5.00;;
21416;SDS011;10869;52.238;10.716;2023-02-03T09:31:51;9.43;;;5.77;;
21416;SDS011;10869;52.238;10.716;2023-02-03T09:34:18;12.20;;;5.77;;
21416;SDS011;10869;52.238;10.716;2023-02-03T09:36:44;10.33;;;5.83;;
21416;SDS011;10869;52.238;10.716;2023-02-03T09:48:37;12.97;;;6.37;;
21416;SDS011;10869;52.238;10.716;2023-02-03T09:56:59;15.53;;;7.70;;
21416;SDS011;10869;52.238;10.716;2023-02-03T09:59:28;16.07;;;7.53;;
21416;SDS011;10869;52.238;10.716;2023-02-03T10:04:38;12.70;;;6.03;;
21416;SDS011;10869;52.238;10.716;2023-02-03T10:07:18;12.10;;;5.43;;
21416;SDS011;10869;52.238;10.716;2023-02-03T10:10:10;16.37;;;6.30;;
21416;SDS011;10869;52.238;10.716;2023-02-03T10:12:49;17.97;;;6.50;;
21416;SDS011;10869;52.238;10.716;2023-02-03T10:15:41;13.47;;;5.67;;
21416;SDS011;10869;52.238;10.716;2023-02-03T10:18:18;14.03;;;6.07;;
21416;SDS011;10869;52.238;10.716;2023-02-03T10:23:40;15.83;;;5.13;;
21416;SDS011;10869;52.238;10.716;2023-02-03T10:26:09;15.53;;;5.77;;
21416;SDS011;10869;52.238;10.716;2023-02-03T10:29:03;16.63;;;5.10;;
21416;SDS011;10869;52.238;10.716;2023-02-03T10:31:31;14.73;;;4.60;;
21416;SDS011;10869;52.238;10.716;2023-02-03T10:37:40;16.10;;;5.20;;
21416;SDS011;10869;52.238;10.716;2023-02-03T10:40:31;17.40;;;5.37;;
21416;SDS011;10869;52.238;10.716;2023-02-03T10:42:56;12.10;;;4.90;;
21416;SDS011;10869;52.238;10.716;2023-02-03T10:45:41;18.40;;;6.03;;
21416;SDS011;10869;52.238;10.716;2023-02-03T10:53:44;35.20;;;18.50;;
21416;SDS011;10869;52.238;10.716;2023-02-03T10:59:34;15.23;;;4.97;;
21416;SDS011;10869;52.238;10.716;2023-02-03T11:02:06;15.47;;;3.17;;
21416;SDS011;10869;52.238;10.716;2023-02-03T11:04:37;17.90;;;3.83;;
21416;SDS011;10869;52.238;10.716;2023-02-03T11:13:23;9.83;;;2.00;;
21416;SDS011;10869;52.238;10.716;2023-02-03T11:44:38;14.77;;;2.90;;
21416;SDS011;10869;52.238;10.716;2023-02-03T11:50:30;14.40;;;2.97;;
21416;SDS011;10869;52.238;10.716;2023-02-03T11:56:49;15.53;;;4.37;;
21416;SDS011;10869;52.238;10.716;2023-02-03T12:32:56;26.03;;;4.30;;
21416;SDS011;10869;52.238;10.716;2023-02-03T12:35:51;25.80;;;5.57;;
21416;SDS011;10869;52.238;10.716;2023-02-03T12:39:05;30.40;;;5.53;;
21416;SDS011;10869;52.238;10.716;2023-02-03T12:41:29;27.23;;;4.97;;
21416;SDS011;10869;52.238;10.716;2023-02-03T12:44:00;23.93;;;4.17;;
21416;SDS011;10869;52.238;10.716;2023-02-03T12:46:43;25.47;;;5.00;;
21416;SDS011;10869;52.238;10.716;2023-02-03T12:52:02;18.80;;;4.83;;
21416;SDS011;10869;52.238;10.716;2023-02-03T12:57:31;26.73;;;4.77;;
21416;SDS011;10869;52.238;10.716;2023-02-03T13:00:04;31.00;;;4.70;;
21416;SDS011;10869;52.238;10.716;2023-02-03T13:02:33;26.03;;;4.77;;
21416;SDS011;10869;52.238;10.716;2023-02-03T13:05:22;32.23;;;4.57;;
21416;SDS011;10869;52.238;10.716;2023-02-03T13:08:00;21.47;;;4.33;;
21416;SDS011;10869;52.238;10.716;2023-02-03T13:14:02;23.57;;;4.67;;
21416;SDS011;10869;52.238;10.716;2023-02-03T13:16:57;26.07;;;6.00;;
21416;SDS011;10869;52.238;10.716;2023-02-03T13:19:35;23.53;;;5.53;;
21416;SDS011;10869;52.238;10.716;2023-02-03T13:22:10;23.97;;;4.80;;
21416;SDS011;10869;52.238;10.716;2023-02-03T13:30:35;32.90;;;5.63;;
21416;SDS011;10869;52.238;10.716;2023-02-03T13:46:52;25.63;;;5.20;;
21416;SDS011;10869;52.238;10.716;2023-02-03T13:49:26;26.13;;;4.47;;
21416;SDS011;10869;52.238;10.716;2023-02-03T13:51:54;26.57;;;4.87;;
21416;SDS011;10869;52.238;10.716;2023-02-03T13:56:54;20.57;;;4.47;;
21416;SDS011;10869;52.238;10.716;2023-02-03T14:18:09;25.60;;;5.40;;
21416;SDS011;10869;52.238;10.716;2023-02-03T14:21:07;38.10;;;6.40;;
21416;SDS011;10869;52.238;10.716;2023-02-03T14:23:40;20.10;;;4.13;;
21416;SDS011;10869;52.238;10.716;2023-02-03T14:26:14;29.77;;;5.67;;
21416;SDS011;10869;52.238;10.716;2023-02-03T14:28:49;25.40;;;4.77;;
21416;SDS011;10869;52.238;10.716;2023-02-03T14:31:19;31.50;;;6.40;;
21416;SDS011;10869;52.238;10.716;2023-02-03T14:42:03;22.07;;;4.57;;
21416;SDS011;10869;52.238;10.716;2023-02-03T14:47:55;27.37;;;4.40;;
21416;SDS011;10869;52.238;10.716;2023-02-03T15:04:35;24.43;;;6.63;;
21416;SDS011;10869;52.238;10.716;2023-02-03T15:07:03;20.93;;;4.73;;
21416;SDS011;10869;52.238;10.716;2023-02-03T15:12:22;27.23;;;4.67;;
21416;SDS011;10869;52.238;10.716;2023-02-03T15:14:50;18.30;;;4.40;;
21416;SDS011;10869;52.238;10.716;2023-02-03T15:17:21;32.43;;;4.90;;
21416;SDS011;10869;52.238;10.716;2023-02-03T15:19:49;22.77;;;5.57;;
21416;SDS011;10869;52.238;10.716;2023-02-03T15:22:27;22.90;;;4.80;;
21416;SDS011;10869;52.238;10.716;2023-02-03T15:24:58;18.87;;;5.00;;
21416;SDS011;10869;52.238;10.716;2023-02-03T15:27:27;23.70;;;4.77;;
21416;SDS011;10869;52.238;10.716;2023-02-03T15:33:17;27.07;;;4.57;;
21416;SDS011;10869;52.238;10.716;2023-02-03T15:35:51;23.20;;;4.27;;
21416;SDS011;10869;52.238;10.716;2023-02-03T15:38:35;26.90;;;4.83;;
21416;SDS011;10869;52.238;10.716;2023-02-03T15:41:05;22.50;;;4.83;;
21416;SDS011;10869;52.238;10.716;2023-02-03T15:46:08;22.33;;;3.93;;
21416;SDS011;10869;52.238;10.716;2023-02-03T15:48:49;26.00;;;5.97;;
21416;SDS011;10869;52.238;10.716;2023-02-03T15:53:58;21.70;;;4.63;;
21416;SDS011;10869;52.238;10.716;2023-02-03T15:56:31;26.57;;;3.83;;
21416;SDS011;10869;52.238;10.716;2023-02-03T15:59:20;30.37;;;5.40;;
21416;SDS011;10869;52.238;10.716;2023-02-03T16:01:49;24.37;;;5.00;;
21416;SDS011;10869;52.238;10.716;2023-02-03T16:04:18;29.83;;;4.83;;
21416;SDS011;10869;52.238;10.716;2023-02-03T16:10:21;25.87;;;5.47;;
21416;SDS011;10869;52.238;10.716;2023-02-03T16:15:24;28.13;;;4.90;;
21416;SDS011;10869;52.238;10.716;2023-02-03T16:17:53;25.03;;;5.93;;
21416;SDS011;10869;52.238;10.716;2023-02-03T16:20:23;28.67;;;5.47;;
21416;SDS011;10869;52.238;10.716;2023-02-03T16:22:59;22.30;;;4.90;;
21416;SDS011;10869;52.238;10.716;2023-02-03T16:25:29;26.77;;;4.53;;
21416;SDS011;10869;52.238;10.716;2023-02-03T16:27:58;26.63;;;5.33;;
21416;SDS011;10869;52.238;10.716;2023-02-03T16:30:51;25.37;;;4.87;;
21416;SDS011;10869;52.238;10.716;2023-02-03T16:33:45;25.93;;;5.27;;
21416;SDS011;10869;52.238;10.716;2023-02-03T16:36:38;20.30;;;4.57;;
21416;SDS011;10869;52.238;10.716;2023-02-03T16:39:24;28.57;;;4.73;;
21416;SDS011;10869;52.238;10.716;2023-02-03T16:42:16;29.13;;;5.10;;
21416;SDS011;10869;52.238;10.716;2023-02-03T16:48:25;21.53;;;5.63;;
21416;SDS011;10869;52.238;10.716;2023-02-03T16:51:11;26.90;;;6.23;;
21416;SDS011;10869;52.238;10.716;2023-02-03T16:53:41;25.43;;;5.30;;
21416;SDS011;10869;52.238;10.716;2023-02-03T16:56:08;25.00;;;6.10;;
21416;SDS011;10869;52.238;10.716;2023-02-03T16:58:35;27.00;;;6.37;;
21416;SDS011;10869;52.238;10.716;2023-02-03T17:04:23;22.13;;;4.70;;
21416;SDS011;10869;52.238;10.716;2023-02-03T17:10:11;34.13;;;6.20;;
21416;SDS011;10869;52.238;10.716;2023-02-03T17:16:05;31.07;;;6.30;;
21416;SDS011;10869;52.238;10.716;2023-02-03T17:21:55;29.27;;;6.80;;
21416;SDS011;10869;52.238;10.716;2023-02-03T17:24:21;39.93;;;9.07;;
21416;SDS011;10869;52.238;10.716;2023-02-03T17:26:50;29.90;;;8.03;;
21416;SDS011;10869;52.238;10.716;2023-02-03T17:32:39;28.43;;;6.57;;
21416;SDS011;10869;52.238;10.716;2023-02-03T17:40:44;27.80;;;6.97;;
21416;SDS011;10869;52.238;10.716;2023-02-03T17:43:10;34.27;;;6.77;;
21416;SDS011;10869;52.238;10.716;2023-02-03T17:45:47;32.10;;;7.13;;
21416;SDS011;10869;52.238;10.716;2023-02-03T17:48:13;32.90;;;7.17;;
21416;SDS011;10869;52.238;10.716;2023-02-03T17:50:41;29.67;;;6.40;;
21416;SDS011;10869;52.238;10.716;2023-02-03T17:53:07;31.30;;;6.07;;
21416;SDS011;10869;52.238;10.716;2023-02-03T17:55:36;38.47;;;8.30;;
21416;SDS011;10869;52.238;10.716;2023-02-03T18:06:37;39.40;;;7.13;;
21416;SDS011;10869;52.238;10.716;2023-02-03T18:09:07;39.93;;;6.80;;
21416;SDS011;10869;52.238;10.716;2023-02-03T18:11:42;27.10;;;6.90;;
21416;SDS011;10869;52.238;10.716;2023-02-03T18:14:13;40.90;;;7.70;;
21416;SDS011;10869;52.238;10.716;2023-02-03T18:16:45;31.87;;;7.43;;
21416;SDS011;10869;52.238;10.716;2023-02-03T18:24:28;39.73;;;7.03;;
21416;SDS011;10869;52.238;10.716;2023-02-03T18:26:55;37.87;;;8.17;;
21416;SDS011;10869;52.238;10.716;2023-02-03T18:34:35;31.73;;;7.77;;
21416;SDS011;10869;52.238;10.716;2023-02-03T18:37:04;37.07;;;6.80;;
21416;SDS011;10869;52.238;10.716;2023-02-03T18:39:30;42.83;;;9.20;;
21416;SDS011;10869;52.238;10.716;2023-02-03T18:45:36;42.67;;;10.27;;
21416;SDS011;10869;52.238;10.716;2023-02-03T18:48:12;36.40;;;7.77;;
21416;SDS011;10869;52.238;10.716;2023-02-03T18:50:43;33.47;;;7.93;;
21416;SDS011;10869;52.238;10.716;2023-02-03T18:53:11;32.13;;;6.30;;
21416;SDS011;10869;52.238;10.716;2023-02-03T18:55:41;37.77;;;7.47;;
21416;SDS011;10869;52.238;10.716;2023-02-03T18:58:09;42.43;;;8.73;;
21416;SDS011;10869;52.238;10.716;2023-02-03T19:04:11;28.50;;;6.33;;
21416;SDS011;10869;52.238;10.716;2023-02-03T19:06:38;31.83;;;5.37;;
21416;SDS011;10869;52.238;10.716;2023-02-03T19:09:09;38.87;;;6.80;;
21416;SDS011;10869;52.238;10.716;2023-02-03T19:11:36;26.70;;;5.10;;
21416;SDS011;10869;52.238;10.716;2023-02-03T19:14:05;29.10;;;5.63;;
21416;SDS011;10869;52.238;10.716;2023-02-03T19:21:42;35.63;;;6.10;;
21416;SDS011;10869;52.238;10.716;2023-02-03T19:24:11;27.83;;;5.53;;
21416;SDS011;10869;52.238;10.716;2023-02-03T19:27:05;35.23;;;6.53;;
21416;SDS011;10869;52.238;10.716;2023-02-03T19:32:58;29.47;;;5.60;;
21416;SDS011;10869;52.238;10.716;2023-02-03T19:35:25;28.63;;;5.60;;
21416;SDS011;10869;52.238;10.716;2023-02-03T19:37:58;32.67;;;6.90;;
21416;SDS011;10869;52.238;10.716;2023-02-03T19:49:26;36.77;;;5.77;;
21416;SDS011;10869;52.238;10.716;2023-02-03T19:54:44;28.73;;;7.80;;
21416;SDS011;10869;52.238;10.716;2023-02-03T19:57:19;37.73;;;8.87;;
21416;SDS011;10869;52.238;10.716;2023-02-03T19:59:48;25.30;;;5.53;;
21416;SDS011;10869;52.238;10.716;2023-02-03T20:02:14;29.43;;;5.13;;
21416;SDS011;10869;52.238;10.716;2023-02-03T20:04:41;41.00;;;6.97;;
21416;SDS011;10869;52.238;10.716;2023-02-03T20:10:39;25.73;;;5.93;;
21416;SDS011;10869;52.238;10.716;2023-02-03T20:16:37;39.93;;;7.90;;
21416;SDS011;10869;52.238;10.716;2023-02-03T20:19:09;41.33;;;6.77;;
21416;SDS011;10869;52.238;10.716;2023-02-03T20:21:35;47.10;;;6.93;;
21416;SDS011;10869;52.238;10.716;2023-02-03T20:24:02;37.17;;;8.30;;
21416;SDS011;10869;52.238;10.716;2023-02-03T20:26:31;34.87;;;5.93;;
21416;SDS011;10869;52.238;10.716;2023-02-03T20:32:38;33.60;;;6.93;;
21416;SDS011;10869;52.238;10.716;2023-02-03T20:35:04;31.23;;;5.90;;
21416;SDS011;10869;52.238;10.716;2023-02-03T20:40:53;33.23;;;6.60;;
21416;SDS011;10869;52.238;10.716;2023-02-03T20:46:46;34.63;;;6.33;;
21416;SDS011;10869;52.238;10.716;2023-02-03T20:49:14;37.20;;;7.37;;
21416;SDS011;10869;52.238;10.716;2023-02-03T20:51:47;37.07;;;7.87;;
21416;SDS011;10869;52.238;10.716;2023-02-03T20:54:14;33.73;;;5.60;;
